sensor_id;sensor_type;location;lat;lon;timestamp;P1;durP1;ratioP1;P2;durP2;ratioP2
7179;SDS011;3631;42.152;24.756;2023-08-12T00:00:51;4.00;;;3.08;;
7179;SDS011;3631;42.152;24.756;2023-08-12T00:03:51;3.40;;;3.20;;
7179;SDS011;3631;42.152;24.756;2023-08-12T00:07:00;4.57;;;3.15;;
7179;SDS011;3631;42.152;24.756;2023-08-12T00:09:42;5.65;;;3.00;;
7179;SDS011;3631;42.152;24.756;2023-08-12T00:12:35;3.95;;;3.53;;
7179;SDS011;3631;42.152;24.756;2023-08-12T00:15:31;3.30;;;3.10;;
7179;SDS011;3631;42.152;24.756;2023-08-12T00:18:34;2.95;;;2.85;;
7179;SDS011;3631;42.152;24.756;2023-08-12T00:21:33;4.30;;;3.15;;
7179;SDS011;3631;42.152;24.756;2023-08-12T00:24:39;3.15;;;3.03;;
7179;SDS011;3631;42.152;24.756;2023-08-12T00:27:36;3.65;;;3.35;;
7179;SDS011;3631;42.152;24.756;2023-08-12T00:30:27;3.88;;;3.58;;
7179;SDS011;3631;42.152;24.756;2023-08-12T00:33:23;5.00;;;4.50;;
7179;SDS011;3631;42.152;24.756;2023-08-12T00:36:17;9.13;;;6.05;;
7179;SDS011;3631;42.152;24.756;2023-08-12T00:39:09;3.22;;;3.03;;
7179;SDS011;3631;42.152;24.756;2023-08-12T00:42:02;3.55;;;3.35;;
7179;SDS011;3631;42.152;24.756;2023-08-12T00:44:39;3.60;;;3.30;;
7179;SDS011;3631;42.152;24.756;2023-08-12T00:47:25;3.25;;;2.95;;
7179;SDS011;3631;42.152;24.756;2023-08-12T00:50:16;3.90;;;3.70;;
7179;SDS011;3631;42.152;24.756;2023-08-12T00:53:20;5.55;;;5.10;;
7179;SDS011;3631;42.152;24.756;2023-08-12T00:56:11;3.83;;;3.55;;
7179;SDS011;3631;42.152;24.756;2023-08-12T00:59:23;3.40;;;3.10;;
7179;SDS011;3631;42.152;24.756;2023-08-12T01:02:16;3.50;;;3.20;;
7179;SDS011;3631;42.152;24.756;2023-08-12T01:05:19;3.97;;;3.10;;
7179;SDS011;3631;42.152;24.756;2023-08-12T01:08:16;3.20;;;3.00;;
7179;SDS011;3631;42.152;24.756;2023-08-12T01:11:17;3.60;;;3.33;;
7179;SDS011;3631;42.152;24.756;2023-08-12T01:14:06;3.17;;;2.83;;
7179;SDS011;3631;42.152;24.756;2023-08-12T01:17:08;3.45;;;3.25;;
7179;SDS011;3631;42.152;24.756;2023-08-12T01:20:07;3.67;;;3.30;;
7179;SDS011;3631;42.152;24.756;2023-08-12T01:22:56;3.58;;;3.10;;
7179;SDS011;3631;42.152;24.756;2023-08-12T01:26:04;3.08;;;2.88;;
7179;SDS011;3631;42.152;24.756;2023-08-12T01:28:54;3.10;;;2.90;;
7179;SDS011;3631;42.152;24.756;2023-08-12T01:31:53;5.53;;;3.10;;
7179;SDS011;3631;42.152;24.756;2023-08-12T01:34:53;3.70;;;3.42;;
7179;SDS011;3631;42.152;24.756;2023-08-12T01:38:10;3.40;;;3.20;;
7179;SDS011;3631;42.152;24.756;2023-08-12T01:41:11;3.35;;;3.15;;
7179;SDS011;3631;42.152;24.756;2023-08-12T01:44:05;3.55;;;3.25;;
7179;SDS011;3631;42.152;24.756;2023-08-12T01:46:57;3.88;;;3.58;;
7179;SDS011;3631;42.152;24.756;2023-08-12T01:49:51;3.80;;;3.50;;
7179;SDS011;3631;42.152;24.756;2023-08-12T01:52:55;4.25;;;3.33;;
7179;SDS011;3631;42.152;24.756;2023-08-12T01:58:59;3.30;;;3.05;;
7179;SDS011;3631;42.152;24.756;2023-08-12T02:01:44;5.20;;;3.97;;
7179;SDS011;3631;42.152;24.756;2023-08-12T02:04:30;3.50;;;3.30;;
7179;SDS011;3631;42.152;24.756;2023-08-12T02:07:24;4.10;;;3.90;;
7179;SDS011;3631;42.152;24.756;2023-08-12T02:10:16;4.65;;;3.25;;
7179;SDS011;3631;42.152;24.756;2023-08-12T02:13:25;3.30;;;3.05;;
7179;SDS011;3631;42.152;24.756;2023-08-12T02:16:24;3.53;;;3.22;;
7179;SDS011;3631;42.152;24.756;2023-08-12T02:19:36;4.05;;;3.50;;
7179;SDS011;3631;42.152;24.756;2023-08-12T02:22:19;4.15;;;3.28;;
7179;SDS011;3631;42.152;24.756;2023-08-12T02:25:08;3.67;;;3.47;;
7179;SDS011;3631;42.152;24.756;2023-08-12T02:27:59;3.97;;;3.78;;
7179;SDS011;3631;42.152;24.756;2023-08-12T02:31:04;5.95;;;3.47;;
7179;SDS011;3631;42.152;24.756;2023-08-12T02:33:57;3.60;;;3.40;;
7179;SDS011;3631;42.152;24.756;2023-08-12T02:36:45;3.40;;;3.20;;
7179;SDS011;3631;42.152;24.756;2023-08-12T02:39:41;3.30;;;3.10;;
7179;SDS011;3631;42.152;24.756;2023-08-12T02:42:37;3.92;;;3.50;;
7179;SDS011;3631;42.152;24.756;2023-08-12T02:45:28;5.05;;;3.75;;
7179;SDS011;3631;42.152;24.756;2023-08-12T02:48:36;4.78;;;3.33;;
7179;SDS011;3631;42.152;24.756;2023-08-12T02:51:14;3.65;;;3.40;;
7179;SDS011;3631;42.152;24.756;2023-08-12T02:54:06;3.85;;;3.55;;
7179;SDS011;3631;42.152;24.756;2023-08-12T02:56:59;3.50;;;3.30;;
7179;SDS011;3631;42.152;24.756;2023-08-12T02:59:46;3.33;;;3.10;;
7179;SDS011;3631;42.152;24.756;2023-08-12T03:02:37;3.58;;;3.20;;
7179;SDS011;3631;42.152;24.756;2023-08-12T03:05:32;4.28;;;4.00;;
7179;SDS011;3631;42.152;24.756;2023-08-12T03:08:17;3.85;;;3.13;;
7179;SDS011;3631;42.152;24.756;2023-08-12T03:11:06;3.60;;;3.40;;
7179;SDS011;3631;42.152;24.756;2023-08-12T03:13:59;3.67;;;3.38;;
7179;SDS011;3631;42.152;24.756;2023-08-12T03:16:46;5.53;;;3.60;;
7179;SDS011;3631;42.152;24.756;2023-08-12T03:23:05;4.35;;;4.05;;
7179;SDS011;3631;42.152;24.756;2023-08-12T03:26:03;4.22;;;3.83;;
7179;SDS011;3631;42.152;24.756;2023-08-12T03:28:57;3.80;;;3.40;;
7179;SDS011;3631;42.152;24.756;2023-08-12T03:31:54;3.55;;;3.20;;
7179;SDS011;3631;42.152;24.756;2023-08-12T03:34:41;4.65;;;3.17;;
7179;SDS011;3631;42.152;24.756;2023-08-12T03:37:37;3.47;;;3.22;;
7179;SDS011;3631;42.152;24.756;2023-08-12T03:40:37;5.68;;;3.72;;
7179;SDS011;3631;42.152;24.756;2023-08-12T03:43:20;3.92;;;3.72;;
7179;SDS011;3631;42.152;24.756;2023-08-12T03:45:52;4.80;;;3.65;;
7179;SDS011;3631;42.152;24.756;2023-08-12T03:48:26;8.18;;;3.80;;
7179;SDS011;3631;42.152;24.756;2023-08-12T03:51:00;4.05;;;3.08;;
7179;SDS011;3631;42.152;24.756;2023-08-12T03:53:37;6.30;;;3.70;;
7179;SDS011;3631;42.152;24.756;2023-08-12T03:56:19;7.65;;;3.67;;
7179;SDS011;3631;42.152;24.756;2023-08-12T03:58:54;3.88;;;3.63;;
7179;SDS011;3631;42.152;24.756;2023-08-12T04:01:23;4.18;;;3.97;;
7179;SDS011;3631;42.152;24.756;2023-08-12T04:03:56;3.75;;;3.55;;
7179;SDS011;3631;42.152;24.756;2023-08-12T04:06:26;6.43;;;3.55;;
7179;SDS011;3631;42.152;24.756;2023-08-12T04:08:58;6.10;;;4.00;;
7179;SDS011;3631;42.152;24.756;2023-08-12T04:11:32;3.90;;;3.60;;
7179;SDS011;3631;42.152;24.756;2023-08-12T04:14:11;3.83;;;3.55;;
7179;SDS011;3631;42.152;24.756;2023-08-12T04:17:06;4.07;;;3.78;;
7179;SDS011;3631;42.152;24.756;2023-08-12T04:19:57;4.28;;;3.88;;
7179;SDS011;3631;42.152;24.756;2023-08-12T04:22:40;6.53;;;4.68;;
7179;SDS011;3631;42.152;24.756;2023-08-12T04:25:25;4.15;;;3.85;;
7179;SDS011;3631;42.152;24.756;2023-08-12T04:28:05;4.05;;;3.63;;
7179;SDS011;3631;42.152;24.756;2023-08-12T04:30:40;4.57;;;3.75;;
7179;SDS011;3631;42.152;24.756;2023-08-12T04:33:14;4.38;;;4.07;;
7179;SDS011;3631;42.152;24.756;2023-08-12T04:35:47;3.65;;;3.45;;
7179;SDS011;3631;42.152;24.756;2023-08-12T04:38:19;4.47;;;3.70;;
7179;SDS011;3631;42.152;24.756;2023-08-12T04:41:00;3.50;;;3.30;;
7179;SDS011;3631;42.152;24.756;2023-08-12T04:43:40;4.15;;;3.75;;
7179;SDS011;3631;42.152;24.756;2023-08-12T04:46:10;4.43;;;3.75;;
7179;SDS011;3631;42.152;24.756;2023-08-12T04:48:42;4.50;;;3.50;;
7179;SDS011;3631;42.152;24.756;2023-08-12T04:51:16;4.82;;;4.53;;
7179;SDS011;3631;42.152;24.756;2023-08-12T04:53:58;4.20;;;3.80;;
7179;SDS011;3631;42.152;24.756;2023-08-12T04:56:39;4.35;;;4.05;;
7179;SDS011;3631;42.152;24.756;2023-08-12T04:59:27;4.50;;;4.20;;
7179;SDS011;3631;42.152;24.756;2023-08-12T05:02:02;4.78;;;4.35;;
7179;SDS011;3631;42.152;24.756;2023-08-12T05:04:49;4.70;;;4.40;;
7179;SDS011;3631;42.152;24.756;2023-08-12T05:07:28;4.15;;;3.85;;
7179;SDS011;3631;42.152;24.756;2023-08-12T05:10:17;4.80;;;4.30;;
7179;SDS011;3631;42.152;24.756;2023-08-12T05:13:04;4.78;;;4.30;;
7179;SDS011;3631;42.152;24.756;2023-08-12T05:16:05;4.63;;;4.32;;
7179;SDS011;3631;42.152;24.756;2023-08-12T05:18:57;4.60;;;4.30;;
7179;SDS011;3631;42.152;24.756;2023-08-12T05:21:51;5.25;;;4.55;;
7179;SDS011;3631;42.152;24.756;2023-08-12T05:24:43;4.50;;;4.10;;
7179;SDS011;3631;42.152;24.756;2023-08-12T05:27:40;5.50;;;4.32;;
7179;SDS011;3631;42.152;24.756;2023-08-12T05:30:24;8.60;;;4.80;;
7179;SDS011;3631;42.152;24.756;2023-08-12T05:33:20;6.03;;;4.53;;
7179;SDS011;3631;42.152;24.756;2023-08-12T05:36:14;6.75;;;5.32;;
7179;SDS011;3631;42.152;24.756;2023-08-12T05:38:59;9.48;;;6.57;;
7179;SDS011;3631;42.152;24.756;2023-08-12T05:41:47;11.18;;;9.35;;
7179;SDS011;3631;42.152;24.756;2023-08-12T05:44:40;5.35;;;5.05;;
7179;SDS011;3631;42.152;24.756;2023-08-12T05:47:45;6.35;;;4.95;;
7179;SDS011;3631;42.152;24.756;2023-08-12T05:50:28;7.53;;;6.63;;
7179;SDS011;3631;42.152;24.756;2023-08-12T05:52:59;7.47;;;5.47;;
7179;SDS011;3631;42.152;24.756;2023-08-12T05:55:30;6.13;;;5.53;;
7179;SDS011;3631;42.152;24.756;2023-08-12T05:58:02;5.25;;;4.85;;
7179;SDS011;3631;42.152;24.756;2023-08-12T06:00:47;7.07;;;5.13;;
7179;SDS011;3631;42.152;24.756;2023-08-12T06:03:27;10.52;;;7.40;;
7179;SDS011;3631;42.152;24.756;2023-08-12T06:06:08;9.05;;;4.75;;
7179;SDS011;3631;42.152;24.756;2023-08-12T06:08:46;6.47;;;5.38;;
7179;SDS011;3631;42.152;24.756;2023-08-12T06:11:27;5.68;;;5.10;;
7179;SDS011;3631;42.152;24.756;2023-08-12T06:14:10;9.55;;;4.90;;
7179;SDS011;3631;42.152;24.756;2023-08-12T06:16:53;6.28;;;5.88;;
7179;SDS011;3631;42.152;24.756;2023-08-12T06:19:24;5.03;;;4.60;;
7179;SDS011;3631;42.152;24.756;2023-08-12T06:22:09;7.85;;;4.78;;
7179;SDS011;3631;42.152;24.756;2023-08-12T06:24:48;10.63;;;5.22;;
7179;SDS011;3631;42.152;24.756;2023-08-12T06:27:29;11.52;;;8.05;;
7179;SDS011;3631;42.152;24.756;2023-08-12T06:30:20;6.68;;;6.03;;
7179;SDS011;3631;42.152;24.756;2023-08-12T06:32:58;5.97;;;5.22;;
7179;SDS011;3631;42.152;24.756;2023-08-12T06:35:48;4.68;;;4.22;;
7179;SDS011;3631;42.152;24.756;2023-08-12T06:38:49;9.32;;;8.45;;
7179;SDS011;3631;42.152;24.756;2023-08-12T06:41:42;6.70;;;6.15;;
7179;SDS011;3631;42.152;24.756;2023-08-12T06:44:41;7.97;;;6.43;;
7179;SDS011;3631;42.152;24.756;2023-08-12T06:47:41;15.40;;;10.43;;
7179;SDS011;3631;42.152;24.756;2023-08-12T06:50:25;7.28;;;4.80;;
7179;SDS011;3631;42.152;24.756;2023-08-12T06:53:12;8.80;;;5.13;;
7179;SDS011;3631;42.152;24.756;2023-08-12T06:56:16;4.45;;;4.10;;
7179;SDS011;3631;42.152;24.756;2023-08-12T06:59:10;8.73;;;3.60;;
7179;SDS011;3631;42.152;24.756;2023-08-12T07:02:08;3.67;;;3.28;;
7179;SDS011;3631;42.152;24.756;2023-08-12T07:04:59;5.03;;;4.45;;
7179;SDS011;3631;42.152;24.756;2023-08-12T07:07:51;5.32;;;4.22;;
7179;SDS011;3631;42.152;24.756;2023-08-12T07:10:34;4.75;;;4.45;;
7179;SDS011;3631;42.152;24.756;2023-08-12T07:13:34;3.20;;;2.97;;
7179;SDS011;3631;42.152;24.756;2023-08-12T07:16:25;3.20;;;3.00;;
7179;SDS011;3631;42.152;24.756;2023-08-12T07:19:16;3.78;;;3.47;;
7179;SDS011;3631;42.152;24.756;2023-08-12T07:22:07;3.13;;;2.92;;
7179;SDS011;3631;42.152;24.756;2023-08-12T07:24:54;3.00;;;2.80;;
7179;SDS011;3631;42.152;24.756;2023-08-12T07:27:55;4.80;;;3.38;;
7179;SDS011;3631;42.152;24.756;2023-08-12T07:30:59;3.25;;;3.05;;
7179;SDS011;3631;42.152;24.756;2023-08-12T07:33:46;3.13;;;3.00;;
7179;SDS011;3631;42.152;24.756;2023-08-12T07:36:41;5.47;;;3.15;;
7179;SDS011;3631;42.152;24.756;2023-08-12T07:39:38;3.83;;;2.63;;
7179;SDS011;3631;42.152;24.756;2023-08-12T07:42:41;6.90;;;2.78;;
7179;SDS011;3631;42.152;24.756;2023-08-12T07:45:37;4.05;;;3.03;;
7179;SDS011;3631;42.152;24.756;2023-08-12T07:48:53;3.00;;;2.72;;
7179;SDS011;3631;42.152;24.756;2023-08-12T07:51:42;3.03;;;2.90;;
7179;SDS011;3631;42.152;24.756;2023-08-12T07:57:52;5.30;;;3.15;;
7179;SDS011;3631;42.152;24.756;2023-08-12T08:00:41;4.25;;;3.00;;
7179;SDS011;3631;42.152;24.756;2023-08-12T08:03:33;3.03;;;2.75;;
7179;SDS011;3631;42.152;24.756;2023-08-12T08:09:39;4.35;;;3.83;;
7179;SDS011;3631;42.152;24.756;2023-08-12T08:12:37;4.95;;;3.45;;
7179;SDS011;3631;42.152;24.756;2023-08-12T08:15:24;4.20;;;2.83;;
7179;SDS011;3631;42.152;24.756;2023-08-12T08:18:00;4.03;;;3.08;;
7179;SDS011;3631;42.152;24.756;2023-08-12T08:20:37;2.90;;;2.53;;
7179;SDS011;3631;42.152;24.756;2023-08-12T08:23:17;5.40;;;2.85;;
7179;SDS011;3631;42.152;24.756;2023-08-12T08:25:51;5.95;;;3.22;;
7179;SDS011;3631;42.152;24.756;2023-08-12T08:28:39;7.30;;;3.30;;
7179;SDS011;3631;42.152;24.756;2023-08-12T08:31:15;4.18;;;2.95;;
7179;SDS011;3631;42.152;24.756;2023-08-12T08:33:58;4.72;;;2.60;;
7179;SDS011;3631;42.152;24.756;2023-08-12T08:36:38;2.63;;;2.42;;
7179;SDS011;3631;42.152;24.756;2023-08-12T08:39:13;3.47;;;2.63;;
7179;SDS011;3631;42.152;24.756;2023-08-12T08:41:49;4.05;;;2.92;;
7179;SDS011;3631;42.152;24.756;2023-08-12T08:44:25;3.35;;;2.33;;
7179;SDS011;3631;42.152;24.756;2023-08-12T08:47:03;2.70;;;2.50;;
7179;SDS011;3631;42.152;24.756;2023-08-12T08:49:34;2.53;;;2.33;;
7179;SDS011;3631;42.152;24.756;2023-08-12T08:52:30;2.38;;;2.28;;
7179;SDS011;3631;42.152;24.756;2023-08-12T08:55:08;2.70;;;2.50;;
7179;SDS011;3631;42.152;24.756;2023-08-12T08:57:49;2.60;;;2.40;;
7179;SDS011;3631;42.152;24.756;2023-08-12T09:00:33;3.72;;;2.55;;
7179;SDS011;3631;42.152;24.756;2023-08-12T09:03:16;3.03;;;2.83;;
7179;SDS011;3631;42.152;24.756;2023-08-12T09:05:51;2.58;;;2.33;;
7179;SDS011;3631;42.152;24.756;2023-08-12T09:08:38;3.33;;;3.03;;
7179;SDS011;3631;42.152;24.756;2023-08-12T09:11:30;4.32;;;2.67;;
7179;SDS011;3631;42.152;24.756;2023-08-12T09:14:23;2.53;;;2.33;;
7179;SDS011;3631;42.152;24.756;2023-08-12T09:17:16;2.30;;;2.20;;
7179;SDS011;3631;42.152;24.756;2023-08-12T09:20:08;2.55;;;2.35;;
7179;SDS011;3631;42.152;24.756;2023-08-12T09:23:02;2.92;;;2.65;;
7179;SDS011;3631;42.152;24.756;2023-08-12T09:25:59;2.80;;;2.70;;
7179;SDS011;3631;42.152;24.756;2023-08-12T09:29:09;2.65;;;2.45;;
7179;SDS011;3631;42.152;24.756;2023-08-12T09:32:00;8.98;;;2.60;;
7179;SDS011;3631;42.152;24.756;2023-08-12T09:34:56;3.25;;;2.72;;
7179;SDS011;3631;42.152;24.756;2023-08-12T09:37:43;2.63;;;2.50;;
7179;SDS011;3631;42.152;24.756;2023-08-12T09:40:38;5.07;;;3.40;;
7179;SDS011;3631;42.152;24.756;2023-08-12T09:43:24;2.92;;;2.83;;
7179;SDS011;3631;42.152;24.756;2023-08-12T09:46:02;3.00;;;2.80;;
7179;SDS011;3631;42.152;24.756;2023-08-12T09:48:37;2.40;;;2.20;;
7179;SDS011;3631;42.152;24.756;2023-08-12T09:51:17;3.55;;;2.72;;
7179;SDS011;3631;42.152;24.756;2023-08-12T09:54:12;8.43;;;3.38;;
7179;SDS011;3631;42.152;24.756;2023-08-12T09:57:10;2.90;;;2.70;;
7179;SDS011;3631;42.152;24.756;2023-08-12T09:59:59;3.08;;;2.78;;
7179;SDS011;3631;42.152;24.756;2023-08-12T10:03:02;2.92;;;2.72;;
7179;SDS011;3631;42.152;24.756;2023-08-12T10:05:51;2.95;;;2.58;;
7179;SDS011;3631;42.152;24.756;2023-08-12T10:08:44;2.35;;;2.20;;
7179;SDS011;3631;42.152;24.756;2023-08-12T10:11:40;4.00;;;2.40;;
7179;SDS011;3631;42.152;24.756;2023-08-12T10:14:27;2.53;;;2.30;;
7179;SDS011;3631;42.152;24.756;2023-08-12T10:17:18;2.38;;;2.20;;
7179;SDS011;3631;42.152;24.756;2023-08-12T10:20:12;2.22;;;2.10;;
7179;SDS011;3631;42.152;24.756;2023-08-12T10:22:44;7.05;;;2.13;;
7179;SDS011;3631;42.152;24.756;2023-08-12T10:25:19;2.47;;;2.33;;
7179;SDS011;3631;42.152;24.756;2023-08-12T10:27:56;2.70;;;2.50;;
7179;SDS011;3631;42.152;24.756;2023-08-12T10:30:33;2.92;;;2.83;;
7179;SDS011;3631;42.152;24.756;2023-08-12T10:33:08;3.67;;;2.20;;
7179;SDS011;3631;42.152;24.756;2023-08-12T10:35:44;4.07;;;2.28;;
7179;SDS011;3631;42.152;24.756;2023-08-12T10:38:21;2.80;;;2.60;;
7179;SDS011;3631;42.152;24.756;2023-08-12T10:41:23;2.92;;;2.40;;
7179;SDS011;3631;42.152;24.756;2023-08-12T10:44:27;2.58;;;2.35;;
7179;SDS011;3631;42.152;24.756;2023-08-12T10:47:34;3.00;;;2.90;;
7179;SDS011;3631;42.152;24.756;2023-08-12T10:50:25;3.00;;;2.80;;
7179;SDS011;3631;42.152;24.756;2023-08-12T10:53:01;2.60;;;2.50;;
7179;SDS011;3631;42.152;24.756;2023-08-12T10:56:04;2.80;;;2.70;;
7179;SDS011;3631;42.152;24.756;2023-08-12T10:58:46;3.38;;;3.17;;
7179;SDS011;3631;42.152;24.756;2023-08-12T11:01:21;3.42;;;2.40;;
7179;SDS011;3631;42.152;24.756;2023-08-12T11:03:56;4.40;;;3.58;;
7179;SDS011;3631;42.152;24.756;2023-08-12T11:06:29;2.88;;;2.67;;
7179;SDS011;3631;42.152;24.756;2023-08-12T11:09:28;2.67;;;2.58;;
7179;SDS011;3631;42.152;24.756;2023-08-12T11:12:09;2.50;;;2.40;;
7179;SDS011;3631;42.152;24.756;2023-08-12T11:14:49;2.70;;;2.60;;
7179;SDS011;3631;42.152;24.756;2023-08-12T11:17:27;2.70;;;2.45;;
7179;SDS011;3631;42.152;24.756;2023-08-12T11:19:57;3.38;;;2.97;;
7179;SDS011;3631;42.152;24.756;2023-08-12T11:22:26;3.00;;;2.72;;
7179;SDS011;3631;42.152;24.756;2023-08-12T11:25:01;4.07;;;3.03;;
7179;SDS011;3631;42.152;24.756;2023-08-12T11:27:38;3.30;;;2.97;;
7179;SDS011;3631;42.152;24.756;2023-08-12T11:30:15;3.53;;;3.33;;
7179;SDS011;3631;42.152;24.756;2023-08-12T11:32:54;3.17;;;2.97;;
7179;SDS011;3631;42.152;24.756;2023-08-12T11:35:29;5.50;;;3.60;;
7179;SDS011;3631;42.152;24.756;2023-08-12T11:38:23;4.80;;;2.90;;
7179;SDS011;3631;42.152;24.756;2023-08-12T11:41:11;2.70;;;2.60;;
7179;SDS011;3631;42.152;24.756;2023-08-12T11:44:06;3.40;;;3.10;;
7179;SDS011;3631;42.152;24.756;2023-08-12T11:47:04;3.20;;;2.90;;
7179;SDS011;3631;42.152;24.756;2023-08-12T11:49:53;3.30;;;3.00;;
7179;SDS011;3631;42.152;24.756;2023-08-12T11:52:43;2.88;;;2.78;;
7179;SDS011;3631;42.152;24.756;2023-08-12T11:55:42;3.10;;;2.90;;
7179;SDS011;3631;42.152;24.756;2023-08-12T11:58:42;2.80;;;2.70;;
7179;SDS011;3631;42.152;24.756;2023-08-12T12:01:27;3.35;;;2.63;;
7179;SDS011;3631;42.152;24.756;2023-08-12T12:04:23;2.55;;;2.40;;
7179;SDS011;3631;42.152;24.756;2023-08-12T12:07:19;3.10;;;2.90;;
7179;SDS011;3631;42.152;24.756;2023-08-12T12:10:06;3.78;;;2.65;;
7179;SDS011;3631;42.152;24.756;2023-08-12T12:12:49;2.72;;;2.50;;
7179;SDS011;3631;42.152;24.756;2023-08-12T12:15:28;3.67;;;2.42;;
7179;SDS011;3631;42.152;24.756;2023-08-12T12:18:03;2.50;;;2.40;;
7179;SDS011;3631;42.152;24.756;2023-08-12T12:20:58;2.83;;;2.60;;
7179;SDS011;3631;42.152;24.756;2023-08-12T12:23:37;3.22;;;2.80;;
7179;SDS011;3631;42.152;24.756;2023-08-12T12:26:24;3.00;;;2.80;;
7179;SDS011;3631;42.152;24.756;2023-08-12T12:29:28;3.28;;;2.97;;
7179;SDS011;3631;42.152;24.756;2023-08-12T12:35:09;2.80;;;2.70;;
7179;SDS011;3631;42.152;24.756;2023-08-12T12:37:37;3.75;;;3.35;;
7179;SDS011;3631;42.152;24.756;2023-08-12T12:40:32;3.10;;;2.90;;
7179;SDS011;3631;42.152;24.756;2023-08-12T12:43:18;3.13;;;2.92;;
7179;SDS011;3631;42.152;24.756;2023-08-12T12:46:25;3.13;;;2.92;;
7179;SDS011;3631;42.152;24.756;2023-08-12T12:49:17;3.35;;;3.08;;
7179;SDS011;3631;42.152;24.756;2023-08-12T12:52:10;4.63;;;2.65;;
7179;SDS011;3631;42.152;24.756;2023-08-12T12:55:01;5.43;;;3.67;;
7179;SDS011;3631;42.152;24.756;2023-08-12T12:58:02;5.03;;;3.30;;
7179;SDS011;3631;42.152;24.756;2023-08-12T13:00:51;3.83;;;3.53;;
7179;SDS011;3631;42.152;24.756;2023-08-12T13:03:31;3.30;;;3.10;;
7179;SDS011;3631;42.152;24.756;2023-08-12T13:06:25;5.65;;;3.20;;
7179;SDS011;3631;42.152;24.756;2023-08-12T13:09:14;2.92;;;2.83;;
7179;SDS011;3631;42.152;24.756;2023-08-12T13:12:16;3.95;;;2.80;;
7179;SDS011;3631;42.152;24.756;2023-08-12T13:14:59;3.03;;;2.83;;
7179;SDS011;3631;42.152;24.756;2023-08-12T13:17:53;2.42;;;2.33;;
7179;SDS011;3631;42.152;24.756;2023-08-12T13:20:32;2.88;;;2.60;;
7179;SDS011;3631;42.152;24.756;2023-08-12T13:23:32;2.97;;;2.75;;
7179;SDS011;3631;42.152;24.756;2023-08-12T13:26:19;3.45;;;2.67;;
7179;SDS011;3631;42.152;24.756;2023-08-12T13:28:56;2.40;;;2.03;;
7179;SDS011;3631;42.152;24.756;2023-08-12T13:31:47;2.75;;;2.65;;
7179;SDS011;3631;42.152;24.756;2023-08-12T13:34:22;2.50;;;2.30;;
7179;SDS011;3631;42.152;24.756;2023-08-12T13:36:59;2.72;;;2.42;;
7179;SDS011;3631;42.152;24.756;2023-08-12T13:39:40;3.13;;;2.92;;
7179;SDS011;3631;42.152;24.756;2023-08-12T13:42:23;2.83;;;2.63;;
7179;SDS011;3631;42.152;24.756;2023-08-12T13:45:13;2.67;;;2.50;;
7179;SDS011;3631;42.152;24.756;2023-08-12T13:48:03;2.85;;;2.40;;
7179;SDS011;3631;42.152;24.756;2023-08-12T13:50:53;3.03;;;2.88;;
7179;SDS011;3631;42.152;24.756;2023-08-12T13:53:37;3.15;;;2.95;;
7179;SDS011;3631;42.152;24.756;2023-08-12T13:56:27;2.67;;;2.58;;
7179;SDS011;3631;42.152;24.756;2023-08-12T13:59:03;2.63;;;2.42;;
7179;SDS011;3631;42.152;24.756;2023-08-12T14:02:02;4.85;;;3.05;;
7179;SDS011;3631;42.152;24.756;2023-08-12T14:04:42;2.50;;;2.40;;
7179;SDS011;3631;42.152;24.756;2023-08-12T14:07:34;4.40;;;3.08;;
7179;SDS011;3631;42.152;24.756;2023-08-12T14:10:04;2.63;;;2.47;;
7179;SDS011;3631;42.152;24.756;2023-08-12T14:12:58;2.40;;;2.13;;
7179;SDS011;3631;42.152;24.756;2023-08-12T14:15:51;2.55;;;2.45;;
7179;SDS011;3631;42.152;24.756;2023-08-12T14:18:42;2.88;;;2.50;;
7179;SDS011;3631;42.152;24.756;2023-08-12T14:21:41;2.58;;;2.35;;
7179;SDS011;3631;42.152;24.756;2023-08-12T14:24:22;3.10;;;2.30;;
7179;SDS011;3631;42.152;24.756;2023-08-12T14:27:14;2.40;;;2.30;;
7179;SDS011;3631;42.152;24.756;2023-08-12T14:30:17;2.40;;;2.22;;
7179;SDS011;3631;42.152;24.756;2023-08-12T14:33:09;2.55;;;2.45;;
7179;SDS011;3631;42.152;24.756;2023-08-12T14:35:55;2.58;;;2.47;;
7179;SDS011;3631;42.152;24.756;2023-08-12T14:38:38;5.80;;;2.75;;
7179;SDS011;3631;42.152;24.756;2023-08-12T14:41:25;2.42;;;2.33;;
7179;SDS011;3631;42.152;24.756;2023-08-12T14:44:13;2.42;;;2.33;;
7179;SDS011;3631;42.152;24.756;2023-08-12T14:47:06;2.85;;;2.33;;
7179;SDS011;3631;42.152;24.756;2023-08-12T14:49:48;2.70;;;2.50;;
7179;SDS011;3631;42.152;24.756;2023-08-12T14:52:41;2.95;;;2.63;;
7179;SDS011;3631;42.152;24.756;2023-08-12T14:55:39;2.72;;;2.17;;
7179;SDS011;3631;42.152;24.756;2023-08-12T14:58:33;2.67;;;2.55;;
7179;SDS011;3631;42.152;24.756;2023-08-12T15:01:25;3.95;;;2.20;;
7179;SDS011;3631;42.152;24.756;2023-08-12T15:04:31;2.40;;;2.30;;
7179;SDS011;3631;42.152;24.756;2023-08-12T15:07:33;2.30;;;2.10;;
7179;SDS011;3631;42.152;24.756;2023-08-12T15:10:31;2.58;;;2.38;;
7179;SDS011;3631;42.152;24.756;2023-08-12T15:13:25;3.45;;;2.50;;
7179;SDS011;3631;42.152;24.756;2023-08-12T15:16:19;3.05;;;2.20;;
7179;SDS011;3631;42.152;24.756;2023-08-12T15:19:10;2.67;;;2.58;;
7179;SDS011;3631;42.152;24.756;2023-08-12T15:21:56;2.60;;;2.50;;
7179;SDS011;3631;42.152;24.756;2023-08-12T15:24:40;2.63;;;2.53;;
7179;SDS011;3631;42.152;24.756;2023-08-12T15:27:41;3.40;;;2.45;;
7179;SDS011;3631;42.152;24.756;2023-08-12T15:30:28;6.38;;;2.33;;
7179;SDS011;3631;42.152;24.756;2023-08-12T15:33:01;2.78;;;2.58;;
7179;SDS011;3631;42.152;24.756;2023-08-12T15:35:35;2.58;;;2.47;;
7179;SDS011;3631;42.152;24.756;2023-08-12T15:38:16;3.15;;;2.47;;
7179;SDS011;3631;42.152;24.756;2023-08-12T15:40:52;2.85;;;2.63;;
7179;SDS011;3631;42.152;24.756;2023-08-12T15:43:30;2.63;;;2.45;;
7179;SDS011;3631;42.152;24.756;2023-08-12T15:46:12;2.30;;;2.20;;
7179;SDS011;3631;42.152;24.756;2023-08-12T15:48:50;2.55;;;2.17;;
7179;SDS011;3631;42.152;24.756;2023-08-12T15:51:29;2.35;;;2.25;;
7179;SDS011;3631;42.152;24.756;2023-08-12T15:54:01;2.70;;;2.60;;
7179;SDS011;3631;42.152;24.756;2023-08-12T15:56:42;2.42;;;2.22;;
7179;SDS011;3631;42.152;24.756;2023-08-12T15:59:22;2.47;;;2.28;;
7179;SDS011;3631;42.152;24.756;2023-08-12T16:02:05;2.67;;;2.58;;
7179;SDS011;3631;42.152;24.756;2023-08-12T16:04:53;2.60;;;2.50;;
7179;SDS011;3631;42.152;24.756;2023-08-12T16:07:38;2.80;;;2.65;;
7179;SDS011;3631;42.152;24.756;2023-08-12T16:10:13;2.65;;;2.45;;
7179;SDS011;3631;42.152;24.756;2023-08-12T16:12:52;2.97;;;2.65;;
7179;SDS011;3631;42.152;24.756;2023-08-12T16:15:37;3.70;;;2.80;;
7179;SDS011;3631;42.152;24.756;2023-08-12T16:18:07;2.72;;;2.53;;
7179;SDS011;3631;42.152;24.756;2023-08-12T16:20:57;8.90;;;2.75;;
7179;SDS011;3631;42.152;24.756;2023-08-12T16:23:32;2.92;;;2.72;;
7179;SDS011;3631;42.152;24.756;2023-08-12T16:26:16;3.20;;;2.65;;
7179;SDS011;3631;42.152;24.756;2023-08-12T16:29:01;3.00;;;2.80;;
7179;SDS011;3631;42.152;24.756;2023-08-12T16:31:36;2.53;;;2.42;;
7179;SDS011;3631;42.152;24.756;2023-08-12T16:34:08;3.60;;;2.88;;
7179;SDS011;3631;42.152;24.756;2023-08-12T16:36:49;3.05;;;2.80;;
7179;SDS011;3631;42.152;24.756;2023-08-12T16:39:29;2.63;;;2.42;;
7179;SDS011;3631;42.152;24.756;2023-08-12T16:42:13;3.72;;;2.53;;
7179;SDS011;3631;42.152;24.756;2023-08-12T16:44:51;2.80;;;2.60;;
7179;SDS011;3631;42.152;24.756;2023-08-12T16:47:20;2.55;;;2.35;;
7179;SDS011;3631;42.152;24.756;2023-08-12T16:50:02;4.20;;;2.95;;
7179;SDS011;3631;42.152;24.756;2023-08-12T16:52:35;3.47;;;2.80;;
7179;SDS011;3631;42.152;24.756;2023-08-12T16:55:07;2.83;;;2.63;;
7179;SDS011;3631;42.152;24.756;2023-08-12T16:57:53;2.95;;;2.65;;
7179;SDS011;3631;42.152;24.756;2023-08-12T17:00:48;2.92;;;2.72;;
7179;SDS011;3631;42.152;24.756;2023-08-12T17:03:32;3.30;;;3.00;;
7179;SDS011;3631;42.152;24.756;2023-08-12T17:06:13;8.20;;;3.13;;
7179;SDS011;3631;42.152;24.756;2023-08-12T17:08:51;7.28;;;5.60;;
7179;SDS011;3631;42.152;24.756;2023-08-12T17:11:39;4.00;;;3.70;;
7179;SDS011;3631;42.152;24.756;2023-08-12T17:14:32;4.88;;;3.67;;
7179;SDS011;3631;42.152;24.756;2023-08-12T17:17:04;3.90;;;3.53;;
7179;SDS011;3631;42.152;24.756;2023-08-12T17:19:36;4.32;;;3.75;;